DAL1819 KBOS-KATL
Flight info
| Callsign | DAL1819 |
|---|---|
| Flight time | N/A |
| Altitude | 34000 |
| Route | BLZZR6 BLZZR BAF Q448 PTW J48 MOL FLASK OZZZI2 |
| Aircraft | B739/M-SDE2E3FGHIRWXY/LB1 |
Departure
| Time | 2026-05-05 01:01 |
|---|---|
| Airport | Boston Logan International Airport (KBOS) |
Arrival
| Time | N/A |
|---|---|
| Airport | Hartsfield Jackson Atlanta International Airport (KATL) |
| Time | Latitude | Longitude | Altitude | Speed | Heading |
|---|---|---|---|---|---|
| 2026-05-04 23:45 | 42.36227 | -71.02440 | 25 ft | 0 kts | 274° |
| 2026-05-05 00:36 | 42.36226 | -71.02427 | 29 ft | 4 kts | 274° |
| 2026-05-05 00:36 | 42.36224 | -71.02392 | 27 ft | 2 kts | 274° |
| 2026-05-05 00:37 | 42.36225 | -71.02363 | 28 ft | 4 kts | 242° |
| 2026-05-05 00:37 | 42.36242 | -71.02344 | 29 ft | 4 kts | 188° |
| 2026-05-05 00:37 | 42.36267 | -71.02341 | 27 ft | 3 kts | 184° |
| 2026-05-05 00:37 | 42.36271 | -71.02341 | 24 ft | 1 kts | 184° |
| 2026-05-05 00:41 | 42.36263 | -71.02342 | 27 ft | 5 kts | 184° |
| 2026-05-05 00:41 | 42.36201 | -71.02347 | 27 ft | 10 kts | 184° |
| 2026-05-05 00:41 | 42.36191 | -71.02348 | 27 ft | 0 kts | 184° |
| 2026-05-05 00:44 | 42.36188 | -71.02348 | 27 ft | 1 kts | 176° |
| 2026-05-05 00:44 | 42.36184 | -71.02346 | 27 ft | 0 kts | 164° |
| 2026-05-05 00:45 | 42.36182 | -71.02346 | 27 ft | 2 kts | 168° |
| 2026-05-05 00:45 | 42.36121 | -71.02341 | 27 ft | 13 kts | 166° |
| 2026-05-05 00:45 | 42.36037 | -71.02265 | 25 ft | 15 kts | 124° |
| 2026-05-05 00:45 | 42.35981 | -71.02143 | 26 ft | 15 kts | 121° |
| 2026-05-05 00:46 | 42.35929 | -71.02026 | 25 ft | 14 kts | 121° |
| 2026-05-05 00:46 | 42.35880 | -71.01914 | 25 ft | 14 kts | 120° |
| 2026-05-05 00:46 | 42.35847 | -71.01798 | 25 ft | 13 kts | 104° |
| 2026-05-05 00:46 | 42.35828 | -71.01680 | 26 ft | 13 kts | 102° |
| 2026-05-05 00:47 | 42.35848 | -71.01575 | 24 ft | 12 kts | 35° |
| 2026-05-05 00:47 | 42.35926 | -71.01532 | 24 ft | 12 kts | 19° |
| 2026-05-05 00:47 | 42.36010 | -71.01491 | 27 ft | 14 kts | 19° |
| 2026-05-05 00:47 | 42.36100 | -71.01448 | 25 ft | 14 kts | 19° |
| 2026-05-05 00:48 | 42.36191 | -71.01404 | 27 ft | 15 kts | 20° |
| 2026-05-05 00:48 | 42.36292 | -71.01355 | 30 ft | 15 kts | 19° |
| 2026-05-05 00:48 | 42.36390 | -71.01308 | 25 ft | 15 kts | 19° |
| 2026-05-05 00:48 | 42.36484 | -71.01262 | 25 ft | 14 kts | 20° |
| 2026-05-05 00:49 | 42.36525 | -71.01242 | 26 ft | 0 kts | 20° |
| 2026-05-05 00:49 | 42.36540 | -71.01235 | 27 ft | 7 kts | 19° |
| 2026-05-05 00:49 | 42.36600 | -71.01206 | 27 ft | 11 kts | 20° |
| 2026-05-05 00:50 | 42.36677 | -71.01169 | 25 ft | 13 kts | 19° |
| 2026-05-05 00:50 | 42.36751 | -71.01144 | 25 ft | 4 kts | 3° |
| 2026-05-05 00:50 | 42.36756 | -71.01144 | 27 ft | 0 kts | 0° |
| 2026-05-05 00:52 | 42.36768 | -71.01146 | 27 ft | 8 kts | 350° |
| 2026-05-05 00:52 | 42.36838 | -71.01216 | 25 ft | 14 kts | 313° |
| 2026-05-05 00:52 | 42.36914 | -71.01226 | 27 ft | 2 kts | 38° |
| 2026-05-05 00:53 | 42.36924 | -71.01204 | 25 ft | 5 kts | 66° |
| 2026-05-05 00:53 | 42.36944 | -71.01161 | 29 ft | 6 kts | 49° |
| 2026-05-05 00:53 | 42.36983 | -71.01117 | 25 ft | 10 kts | 34° |
| 2026-05-05 00:53 | 42.37062 | -71.01062 | 27 ft | 16 kts | 26° |
| 2026-05-05 00:54 | 42.37178 | -71.00987 | 25 ft | 20 kts | 25° |
| 2026-05-05 00:54 | 42.37246 | -71.00943 | 27 ft | 3 kts | 26° |
| 2026-05-05 00:54 | 42.37246 | -71.00942 | 27 ft | 0 kts | 26° |
| 2026-05-05 00:54 | 42.37247 | -71.00941 | 27 ft | 4 kts | 25° |
| 2026-05-05 00:55 | 42.37316 | -71.00901 | 27 ft | 12 kts | 22° |
| 2026-05-05 00:55 | 42.37396 | -71.00862 | 26 ft | 12 kts | 19° |
| 2026-05-05 00:55 | 42.37474 | -71.00825 | 26 ft | 12 kts | 20° |
| 2026-05-05 00:55 | 42.37555 | -71.00785 | 25 ft | 15 kts | 20° |
| 2026-05-05 00:56 | 42.37645 | -71.00741 | 25 ft | 0 kts | 19° |
| 2026-05-05 00:56 | 42.37652 | -71.00738 | 27 ft | 7 kts | 19° |
| 2026-05-05 00:56 | 42.37732 | -71.00701 | 27 ft | 13 kts | 21° |
| 2026-05-05 00:56 | 42.37770 | -71.00641 | 25 ft | 1 kts | 80° |
| 2026-05-05 00:57 | 42.37770 | -71.00628 | 25 ft | 2 kts | 90° |
| 2026-05-05 00:57 | 42.37769 | -71.00613 | 25 ft | 0 kts | 102° |
| 2026-05-05 00:57 | 42.37768 | -71.00613 | 25 ft | 0 kts | 102° |
| 2026-05-05 00:58 | 42.37768 | -71.00610 | 25 ft | 0 kts | 103° |
| 2026-05-05 00:59 | 42.37768 | -71.00609 | 25 ft | 0 kts | 103° |
| 2026-05-05 00:59 | 42.37768 | -71.00608 | 25 ft | 0 kts | 103° |
| 2026-05-05 01:00 | 42.37766 | -71.00600 | 25 ft | 4 kts | 103° |
| 2026-05-05 01:00 | 42.37746 | -71.00517 | 28 ft | 9 kts | 130° |
| 2026-05-05 01:00 | 42.37724 | -71.00510 | 25 ft | 10 kts | 181° |
| 2026-05-05 01:00 | 42.37404 | -71.00657 | 27 ft | 90 kts | 201° |
| 2026-05-05 01:01 | 42.36585 | -71.01046 | 84 ft | 151 kts | 199° |
| 2026-05-05 01:01 | 42.35607 | -71.01524 | 704 ft | 148 kts | 196° |
| 2026-05-05 01:01 | 42.34562 | -71.01625 | 1359 ft | 158 kts | 180° |
| 2026-05-05 01:01 | 42.33539 | -71.00917 | 1944 ft | 189 kts | 144° |
| 2026-05-05 01:02 | 42.32687 | -70.99437 | 2081 ft | 211 kts | 136° |
| 2026-05-05 01:02 | 42.31764 | -70.97795 | 2486 ft | 228 kts | 128° |
| 2026-05-05 01:02 | 42.31288 | -70.95677 | 2971 ft | 248 kts | 98° |
| 2026-05-05 01:02 | 42.31399 | -70.93209 | 3209 ft | 278 kts | 81° |
| 2026-05-05 01:03 | 42.31802 | -70.90580 | 3758 ft | 291 kts | 78° |
| 2026-05-05 01:03 | 42.32229 | -70.87893 | 4563 ft | 294 kts | 78° |
| 2026-05-05 01:03 | 42.32635 | -70.85180 | 5423 ft | 294 kts | 78° |
| 2026-05-05 01:03 | 42.33029 | -70.82455 | 6244 ft | 297 kts | 78° |
| 2026-05-05 01:04 | 42.33040 | -70.79665 | 6922 ft | 301 kts | 107° |
| 2026-05-05 01:04 | 42.31156 | -70.74681 | 8534 ft | 300 kts | 122° |
| 2026-05-05 01:04 | 42.29776 | -70.72580 | 9172 ft | 301 kts | 151° |
| 2026-05-05 01:05 | 42.27846 | -70.71654 | 9937 ft | 294 kts | 178° |
| 2026-05-05 01:05 | 42.25816 | -70.71756 | 10528 ft | 295 kts | 194° |
| 2026-05-05 01:05 | 42.23776 | -70.72266 | 11105 ft | 301 kts | 194° |
| 2026-05-05 01:05 | 42.21715 | -70.72809 | 11806 ft | 302 kts | 199° |
| 2026-05-05 01:06 | 42.19880 | -70.74070 | 12533 ft | 294 kts | 225° |
| 2026-05-05 01:06 | 42.18498 | -70.76114 | 13021 ft | 304 kts | 232° |
| 2026-05-05 01:06 | 42.17391 | -70.78558 | 13138 ft | 321 kts | 252° |
| 2026-05-05 01:06 | 42.17037 | -70.80522 | 13262 ft | 332 kts | 263° |
| 2026-05-05 01:07 | 42.17038 | -70.83697 | 13633 ft | 345 kts | 276° |
| 2026-05-05 01:07 | 42.17811 | -70.86762 | 14062 ft | 350 kts | 297° |
| 2026-05-05 01:07 | 42.19190 | -70.89498 | 14071 ft | 354 kts | 304° |
| 2026-05-05 01:07 | 42.20696 | -70.92118 | 14061 ft | 354 kts | 305° |
| 2026-05-05 01:08 | 42.22225 | -70.94708 | 14056 ft | 348 kts | 306° |
| 2026-05-05 01:08 | 42.23710 | -70.97202 | 14050 ft | 334 kts | 306° |
| 2026-05-05 01:08 | 42.25151 | -70.99607 | 14066 ft | 327 kts | 306° |
| 2026-05-05 01:08 | 42.26573 | -71.01977 | 14067 ft | 324 kts | 306° |
| 2026-05-05 01:09 | 42.27998 | -71.04351 | 14087 ft | 325 kts | 306° |
| 2026-05-05 01:09 | 42.29421 | -71.06726 | 14086 ft | 325 kts | 306° |
| 2026-05-05 01:09 | 42.30756 | -71.09182 | 14058 ft | 323 kts | 294° |
| 2026-05-05 01:09 | 42.31257 | -71.12083 | 14081 ft | 318 kts | 267° |
| 2026-05-05 01:10 | 42.30657 | -71.14934 | 14075 ft | 320 kts | 240° |
| 2026-05-05 01:10 | 42.29253 | -71.17157 | 14106 ft | 324 kts | 226° |
| 2026-05-05 01:10 | 42.27699 | -71.19132 | 14093 ft | 325 kts | 226° |
| 2026-05-05 01:10 | 42.26067 | -71.21196 | 14084 ft | 326 kts | 226° |
| 2026-05-05 01:11 | 42.24406 | -71.23290 | 14083 ft | 327 kts | 226° |
| 2026-05-05 01:11 | 42.22746 | -71.25390 | 14083 ft | 326 kts | 228° |
| 2026-05-05 01:11 | 42.21376 | -71.27793 | 14097 ft | 322 kts | 242° |
| 2026-05-05 01:11 | 42.20434 | -71.30478 | 14089 ft | 321 kts | 252° |
| 2026-05-05 01:12 | 42.19858 | -71.33397 | 14170 ft | 323 kts | 261° |
| 2026-05-05 01:12 | 42.19588 | -71.36419 | 14747 ft | 324 kts | 265° |
| 2026-05-05 01:12 | 42.19179 | -71.39399 | 15473 ft | 325 kts | 252° |
| 2026-05-05 01:12 | 42.18219 | -71.42168 | 16121 ft | 328 kts | 244° |
| 2026-05-05 01:13 | 42.17147 | -71.44901 | 16699 ft | 332 kts | 245° |
| 2026-05-05 01:13 | 42.16088 | -71.47686 | 17301 ft | 335 kts | 245° |
| 2026-05-05 01:13 | 42.15031 | -71.50496 | 17920 ft | 338 kts | 245° |
| 2026-05-05 01:13 | 42.14198 | -71.52722 | 18368 ft | 340 kts | 245° |
| 2026-05-05 01:14 | 42.13130 | -71.55580 | 18894 ft | 343 kts | 245° |
| 2026-05-05 01:14 | 42.12068 | -71.58423 | 19420 ft | 345 kts | 246° |
| 2026-05-05 01:14 | 42.10981 | -71.61332 | 19952 ft | 348 kts | 246° |
| 2026-05-05 01:14 | 42.09886 | -71.64263 | 20473 ft | 351 kts | 246° |
| 2026-05-05 01:15 | 42.08784 | -71.67209 | 20992 ft | 354 kts | 246° |
| 2026-05-05 01:15 | 42.07671 | -71.70182 | 21513 ft | 357 kts | 246° |
| 2026-05-05 01:15 | 42.06548 | -71.73179 | 22004 ft | 360 kts | 246° |
| 2026-05-05 01:15 | 42.05416 | -71.76197 | 22504 ft | 363 kts | 246° |
| 2026-05-05 01:16 | 42.04271 | -71.79245 | 23002 ft | 366 kts | 247° |
| 2026-05-05 01:16 | 42.03117 | -71.82315 | 23493 ft | 369 kts | 247° |
| 2026-05-05 01:16 | 42.01949 | -71.85418 | 23895 ft | 372 kts | 247° |
| 2026-05-05 01:16 | 42.00775 | -71.88535 | 24320 ft | 375 kts | 247° |
| 2026-05-05 01:17 | 41.99593 | -71.91666 | 24719 ft | 378 kts | 247° |
| 2026-05-05 01:17 | 41.98400 | -71.94826 | 25127 ft | 380 kts | 247° |